ADDS METAR Data INFO
IDs: Format: Raw Decoded Include TAF

Data at: 0153 UTC 19 Jul 2018

KF05 190135Z AUTO 15006KT 10SM CLR 39/11 A2981 RMK AO1 T03870112
KF05 190115Z AUTO 15006KT 10SM CLR 40/10 A2981 RMK AO1 T04020103
KF05 190055Z AUTO 17010KT 10SM CLR 41/10 A2981 RMK AO1 T04100102
KF05 190035Z AUTO 14010KT 10SM CLR 42/10 A2981 RMK AO1 T04150104
KF05 190015Z AUTO 15007KT 10SM CLR 42/11 A2981 RMK AO1 T04170108
KF05 182355Z AUTO 12007KT 10SM CLR 42/11 A2981 RMK AO1 6//// T04200109
KF05 182335Z AUTO 16009KT 10SM CLR 42/11 A2982 RMK AO1 T04230110
KF05 182315Z AUTO 16011G14KT 10SM SCT120 42/11 A2983 RMK AO1 T04230110
KF05 182255Z AUTO 13010KT 10SM SCT120 42/11 A2983 RMK AO1 T04160108
KF05 182235Z AUTO 18005KT 10SM SCT120 42/11 A2984 RMK AO1 T04190106
KF05 182215Z AUTO 00000KT 10SM CLR 43/11 A2984 RMK AO1 T04280109
KF05 182155Z AUTO 21010KT 10SM SCT120 42/11 A2984 RMK AO1 T04220105
KF05 182135Z AUTO 19008G16KT 10SM SCT120 42/11 A2985 RMK AO1 T04230106
KF05 182115Z AUTO 21009G16KT 10SM CLR 43/11 A2986 RMK AO1 T04250108
KF05 182055Z AUTO 22006KT 10SM CLR 43/11 A2987 RMK AO1 6//// T04250110
KF05 182035Z AUTO 20006KT 10SM CLR 43/11 A2988 RMK AO1 T04250110
KF05 182015Z AUTO 22004G09KT 10SM SCT120 42/11 A2988 RMK AO1 T04240109
KF05 181955Z AUTO 19011G17KT 10SM 42/11 A2989 RMK AO1 T04190109
KF05 181935Z AUTO 21007KT 170V230 7SM CLR 41/11 A2990 RMK AO1 T04120114
KF05 181915Z AUTO 00000KT 10SM CLR 41/12 A2991 RMK AO1 T04100117
KF05 181855Z AUTO 28003KT 10SM CLR 41/12 A2991 RMK AO1 T04080123
KF05 181835Z AUTO 25006KT 10SM CLR 40/13 A2992 RMK AO1 T04040125
KF05 181815Z AUTO 23006KT 10SM CLR 40/13 A2993 RMK AO1 T03990125
KF05 181755Z AUTO 32005KT 10SM CLR 39/13 A2994 RMK AO1 T03900125 10416 20251
KF05 181735Z AUTO 28007KT 10SM CLR 39/13 A2994 RMK AO1 T03890127
KF05 181715Z AUTO 29004KT 10SM CLR 38/13 A2994 RMK AO1 T03810126
KF05 181655Z AUTO 26007G14KT 10SM CLR 37/13 A2995 RMK AO1 T03730126
KF05 181635Z AUTO 28011KT 10SM CLR 37/12 A2996 RMK AO1 T03690121
KF05 181615Z AUTO 27014KT 10SM CLR 37/12 A2996 RMK AO1 T03700118
KF05 181555Z AUTO 27010G16KT 10SM CLR 37/12 A2996 RMK AO1 T03660122
KF05 181535Z AUTO 24008KT 10SM CLR 35/12 A2996 RMK AO1 T03540122
KF05 181515Z AUTO 21008KT 10SM CLR 34/12 A2996 RMK AO1 T03410120
KF05 181455Z AUTO 20008KT 10SM CLR 33/12 A2996 RMK AO1 T03310119
KF05 181435Z AUTO 19009KT 10SM CLR 32/12 A2997 RMK AO1 T03200116
KF05 181415Z AUTO 18007KT 10SM CLR 31/12 A2998 RMK AO1 T03130115
KF05 181355Z AUTO 15006KT 10SM CLR 30/12 A2998 RMK AO1 T03030115
KF05 181335Z AUTO 15006KT 10SM CLR 29/11 A2998 RMK AO1 T02900114
KF05 181315Z AUTO 14007KT 7SM CLR 28/11 A2998 RMK AO1 T02780114
KF05 181255Z AUTO 14005KT 10SM CLR 27/12 A2998 RMK AO1 T02670118
KF05 181235Z AUTO 14006KT 7SM CLR 26/12 A2998 RMK AO1 T02580117
KF05 181215Z AUTO 10003KT 10SM CLR 26/12 A2998 RMK AO1 T02580115
KF05 181155Z AUTO 15005KT 10SM CLR 26/11 A2996 RMK AO1 7//// T02630109 10416 20251
KF05 181135Z AUTO 00000KT 10SM CLR 27/11 A2996 RMK AO1 T02690105
KF05 181115Z AUTO 00000KT 10SM CLR 27/11 A2996 RMK AO1 T02710105
KF05 181055Z AUTO 01007KT 10SM CLR 25/11 A2996 RMK AO1 T02540114
KF05 181035Z AUTO 23005KT 10SM CLR 26/11 A2994 RMK AO1 T02550112
KF05 181015Z AUTO 22005KT 10SM CLR 26/11 A2994 RMK AO1 T02600111
KF05 180955Z AUTO 22004KT 10SM CLR 26/11 A2994 RMK AO1 T02620111
KF05 180935Z AUTO 21005KT 10SM CLR 27/11 A2994 RMK AO1 T02690108
KF05 180915Z AUTO 22006KT 10SM CLR 27/11 A2994 RMK AO1 T02710108
KF05 180855Z AUTO 23006KT 10SM CLR 28/11 A2994 RMK AO1 T02770106
KF05 180835Z AUTO 23005KT 10SM CLR 29/10 A2993 RMK AO1 T02890101
KF05 180815Z AUTO 19007KT 10SM CLR 30/10 A2993 RMK AO1 T02960104
KF05 180755Z AUTO 20008KT 10SM CLR 30/11 A2993 RMK AO1 T03040105
KF05 180735Z AUTO 19009KT 10SM CLR 31/11 A2994 RMK AO1 T03080105
KF05 180715Z AUTO 19008KT 10SM CLR 31/11 A2994 RMK AO1 T03130106
KF05 180655Z AUTO 20009KT 10SM CLR 32/11 A2994 RMK AO1 T03200109
KF05 180635Z AUTO 20010KT 10SM CLR 32/11 A2994 RMK AO1 T03210112
KF05 180615Z AUTO 19010KT 10SM CLR 32/12 A2995 RMK AO1 T03200120
KF05 180555Z AUTO 20010KT 10SM CLR 32/13 A2995 RMK AO1 T03220125 10416 20273
KF05 180535Z AUTO 19011KT 10SM CLR 33/13 A2995 RMK AO1 T03270126
KF05 180515Z AUTO 19010KT 10SM CLR 32/13 A2996 RMK AO1 T03220131
KF05 180455Z AUTO 20007KT 10SM CLR 32/13 A2996 RMK AO1 T03180131
KF05 180435Z AUTO 19006KT 10SM CLR 32/13 A2996 RMK AO1 T03160130
KF05 180415Z AUTO 18006KT 10SM CLR 32/13 A2996 RMK AO1 T03220126
KF05 180355Z AUTO 19006KT 10SM CLR 32/12 A2995 RMK AO1 T03240122
KF05 180335Z AUTO 18007KT 10SM CLR 33/12 A2994 RMK AO1 T03310120
KF05 180315Z AUTO 19006KT 10SM CLR 34/12 A2993 RMK AO1 LTG DSNT N T03410118
KF05 180255Z AUTO 19008KT 10SM CLR 34/12 A2992 RMK AO1 T03430116
KF05 180235Z AUTO 19007KT 10SM CLR 35/12 A2992 RMK AO1 T03470115
KF05 180215Z AUTO 19006KT 10SM CLR 36/12 A2992 RMK AO1 T03550115
KF05 180155Z AUTO 19007KT 10SM CLR 36/12 A2992 RMK AO1 T03630118
KF05 180135Z AUTO 19007KT 10SM CLR 37/12 A2991 RMK AO1 T03740118
KF05 180115Z AUTO 18008KT 10SM CLR 38/12 A2991 RMK AO1 T03840117
KF05 180055Z AUTO 18009KT 10SM CLR 39/12 A2991 RMK AO1 T03920115
KF05 180035Z AUTO 19013G16KT 10SM CLR 40/11 A2991 RMK AO1 T03990113
KF05 180015Z AUTO 19010KT 10SM CLR 40/11 A2991 RMK AO1 T04030111
KF05 172355Z AUTO 20011KT 10SM CLR 41/11 A2991 RMK AO1 T04070109 10416 20273
KF05 172335Z AUTO 20011KT 10SM CLR 41/11 A2991 RMK AO1 T04100110
KF05 172315Z AUTO 19008G16KT 7SM CLR 41/11 A2992 RMK AO1 T04110110
KF05 172255Z AUTO 23011G18KT 10SM CLR 41/11 A2993 RMK AO1 T04130109
KF05 172235Z AUTO 16005KT 10SM CLR 41/11 A2993 RMK AO1 T04130107
KF05 172215Z AUTO 21008KT 10SM CLR 42/11 A2993 RMK AO1 T04150111
KF05 172155Z AUTO 22006G15KT 7SM SCT110 42/11 A2993 RMK AO1 T04160112
KF05 172135Z AUTO 23013G17KT 10SM SCT110 42/11 A2994 RMK AO1 T04150112
KF05 172115Z AUTO 19005G16KT 10SM SCT110 41/11 A2994 RMK AO1 T04120110
KF05 172055Z AUTO 21007G18KT 10SM SCT110 42/12 A2996 RMK AO1 T04150115
KF05 172035Z AUTO 22012G16KT 10SM CLR 41/12 A2996 RMK AO1 T04120116
KF05 172015Z AUTO 21010G17KT 10SM CLR 41/12 A2996 RMK AO1 T04090120
KF05 171955Z AUTO 23010G15KT 10SM CLR 41/12 A2997 RMK AO1 T04070120
KF05 171935Z AUTO 20011G16KT 10SM CLR 41/12 A2998 RMK AO1 T04050123
KF05 171915Z AUTO 23003G16KT 7SM CLR 41/13 A2999 RMK AO1 LTG DSNT NW T04050125
KF05 171855Z AUTO 21013G21KT 7SM CLR 41/12 A2999 RMK AO1 T04060123
KF05 171835Z AUTO 19008KT 10SM CLR 40/13 A3000 RMK AO1 T03990132
KF05 171815Z AUTO 27007KT 10SM CLR 39/13 A3001 RMK AO1 LTG DSNT NE T03940131
KF05 171755Z AUTO 22006G15KT 7SM CLR 39/14 A3002 RMK AO1 6//// T03910138
KF05 171735Z AUTO 25009G15KT 230V290 10SM CLR 39/14 A3003 RMK AO1 T03860144
KF05 171715Z AUTO 26008G17KT 7SM CLR 38/15 A3003 RMK AO1 T03810147
KF05 171655Z AUTO 25009G14KT 10SM CLR 37/15 A3004 RMK AO1 T03740151
KF05 171635Z AUTO 23010G16KT 10SM CLR 37/15 A3004 RMK AO1 T03670150
KF05 171615Z AUTO 25012G16KT 10SM CLR 36/15 A3005 RMK AO1 T03610149
KF05 171555Z AUTO 26011KT 230V290 10SM CLR 35/15 A3005 RMK AO1 T03520146
KF05 171535Z AUTO 26010KT 7SM CLR 35/14 A3005 RMK AO1 T03450144
KF05 171515Z AUTO 23011G16KT 10SM CLR 34/14 A3005 RMK AO1 T03370142
KF05 171455Z AUTO 22009KT 10SM CLR 33/14 A3005 RMK AO1 6//// T03270142
KF05 171435Z AUTO 23010KT 7SM CLR 32/14 A3004 RMK AO1 T03190141
KF05 171415Z AUTO 23009KT 10SM CLR 31/15 A3004 RMK AO1 T03060146
KF05 171355Z AUTO 24009KT 10SM CLR 30/15 A3004 RMK AO1 T02950148